ΕΜΥ, Εθνική Μετεωρολογική Υπηρεσία - Δελτία Καιρού, Προγνώσεις

ΑΕΡΟΝΑΥΤΙΛΙΑ

GREEK AIRPORTS CODES

LGKZ 220750Z 00000KT 9000 NSC 07/03 Q1022=

EUROPEAN AIRPORTS CODES

LFPO 220800Z 20014KT 6000 -DZRA BKN006 12/11 Q0995 TEMPO 2500=